Bordeaux-Mérignac Airport

LFBD · Gironda, Aquitania-Limosino-Poitou-Charentes, Francia

Storia di METAR LFBD · Bordeaux-Mérignac Airport

Di seguito sono riportati i METAR degli ultimi giorni. Seleziona un anno per sfogliare i METAR più vecchi, dall'anno 2007 in poi.

20 giugno 2024

Tempo Codice Tempo meteorologico Temp. Vista Base nuvolosa Vento METAR/SPECI
13:00
M
19 °C 10 km+ 1.900 ft 200° 200° 6 kt METAR LFBD 201100Z AUTO 20006KT 9999 BKN019/// BKN025/// OVC030/// //////TCU 19/15 Q1018 TEMPO 4000 SHRA BKN010 BKN030TCU
13:00
M
19 °C 10 km+ 1.900 ft 200° 200° 6 kt METAR LFBD 201100Z AUTO 20006KT 9999 BKN019/// BKN025/// OVC030/// ///TCU 19/15 Q1018 TEMPO 4000 SHRA BKN010 BKN030TCU
12:30
V
19 °C 10 km+ 15.000 ft 190° 190° 6 kt METAR LFBD 201030Z AUTO 19006KT 160V220 9999 SCT022/// SCT092/// BKN150/// ///TCU 19/15 Q1017 TEMPO 4000 SHRA BKN010 BKN030TCU
12:00
V
19 °C 10 km+ 9.200 ft 210° 210° 7 kt METAR LFBD 201000Z AUTO 21007KT 9999 SCT020 SCT027 BKN092 19/15 Q1017 TEMPO 4000 SHRA BKN010 BKN030TCU
11:30
M
19 °C 10 km+ 2.400 ft 230° 230° 7 kt METAR LFBD 200930Z AUTO 23007KT 9999 SCT019/// BKN024/// BKN029/// //////TCU 19/15 Q1017 BECMG NSC
11:00
V
19 °C 10 km+ 15.000 ft 260° 260° 4 kt METAR LFBD 200900Z AUTO 26004KT 230V300 9999 FEW017 OVC150 19/15 Q1016 NOSIG
10:30
V
19 °C 10 km+ 17.000 ft 240° 240° 4 kt METAR LFBD 200830Z AUTO 24004KT 200V280 9999 FEW016 BKN170 OVC190 19/15 Q1016 NOSIG
10:00
V
19 °C 10 km+ 20.000 ft Var Var 3 kt METAR LFBD 200800Z AUTO VRB03KT 9999 FEW014 OVC200 19/15 Q1016 NOSIG
09:30
V
18 °C 10 km+ - 310° 310° 4 kt METAR LFBD 200730Z AUTO 31004KT CAVOK 18/15 Q1016 NOSIG
09:00
V
17 °C 10 km+ - Var Var 3 kt METAR LFBD 200700Z AUTO VRB03KT CAVOK 17/15 Q1016 TEMPO BKN010
08:30
V
17 °C 10 km+ - 290° 290° 4 kt METAR LFBD 200630Z AUTO 29004KT CAVOK 17/15 Q1015 TEMPO BKN010
08:00
V
16 °C 10 km+ - 250° 250° 5 kt METAR LFBD 200600Z AUTO 25005KT 230V290 CAVOK 16/15 Q1016 TEMPO BKN010
07:30
V
16 °C 10 km+ - 220° 220° 5 kt METAR LFBD 200530Z AUTO 22005KT 9999 NSC 16/15 Q1016 TEMPO BKN010
07:00
V
16 °C 10 km+ - 300° 300° 3 kt METAR LFBD 200500Z AUTO 30003KT 270V330 9999 ///TCU 16/15 Q1015 TEMPO 3000 BR BKN006
06:30
V
16 °C 10 km+ 15.000 ft Var Var 2 kt METAR LFBD 200430Z AUTO VRB02KT 9999 SCT029 OVC150 16/15 Q1016 TEMPO 3000 BR BKN006
06:00
M
16 °C 10 km+ 2.500 ft 210° 210° 3 kt METAR LFBD 200400Z AUTO 21003KT 9999 FEW017 OVC025 16/15 Q1017 TEMPO 3000 BR VV///
05:30
M
16 °C 10 km+ 2.200 ft Var Var 2 kt METAR LFBD 200330Z AUTO VRB02KT 9999 BKN022 BKN180 OVC200 16/15 Q1017 TEMPO 3000 BR VV///
05:00
V
16 °C 10 km+ 17.000 ft 260° 260° 6 kt METAR LFBD 200300Z AUTO 26006KT 9999 SCT021 BKN170 16/15 Q1016 TEMPO 0500 FG VV///
04:30
M
16 °C 10 km+ 2.100 ft 160° 160° 3 kt METAR LFBD 200230Z AUTO 16003KT 9999 BKN021 BKN150 BKN170 16/15 Q1016 TEMPO 0500 FG VV///
04:00
M
16 °C 10 km+ 2.100 ft 240° 240° 5 kt METAR LFBD 200200Z AUTO 24005KT 9999 BKN021 16/15 Q1016 TEMPO 0500 FG VV///
03:30
M
16 °C 10 km+ 2.200 ft 010° 010° 4 kt METAR LFBD 200130Z AUTO 01004KT 9999 BKN022 16/15 Q1016 TEMPO 0500 FG VV///
03:00
M
17 °C 10 km+ 2.300 ft Var Var 1 kt METAR LFBD 200100Z AUTO VRB01KT 9999 OVC023 17/15 Q1016 TEMPO 0500 FG VV///
02:30
M
16 °C 10 km+ 2.200 ft Var Var 1 kt METAR LFBD 200030Z AUTO VRB01KT 9999 BKN022 16/15 Q1016 TEMPO 0500 FG VV///
02:00
M
16 °C 10 km+ 2.300 ft Var Var 2 kt METAR LFBD 200000Z AUTO VRB02KT 9999 FEW013 BKN023 16/15 Q1016 TEMPO 3000 RA BKN004
01:30
V
16 °C 10 km+ - 290° 290° 6 kt METAR LFBD 192330Z AUTO 29006KT 9999 SCT018 16/15 Q1016 TEMPO 3000 RA BKN004
01:00
V
16 °C 10 km+ - Var Var 2 kt METAR LFBD 192300Z AUTO VRB02KT 9999 FEW014 16/14 Q1017 TEMPO 3000 RA BKN004
00:30
V
16 °C 10 km+ - Var Var 2 kt METAR LFBD 192230Z AUTO VRB02KT CAVOK 16/15 Q1017 TEMPO 3000 RA BKN004
00:00
V
17 °C 10 km+ - Var Var 2 kt METAR LFBD 192200Z AUTO VRB02KT CAVOK 17/15 Q1017 TEMPO 4000 SHRA SCT040TCU

19 giugno 2024

Tempo Codice Tempo meteorologico Temp. Vista Base nuvolosa Vento METAR/SPECI
23:30
V
17 °C 10 km+ - 280° 280° 7 kt METAR LFBD 192130Z AUTO 28007KT CAVOK 17/15 Q1016 TEMPO 4000 SHRA SCT040TCU
23:00
V
18 °C 10 km+ - 270° 270° 7 kt METAR LFBD 192100Z AUTO 27007KT CAVOK 18/15 Q1017 TEMPO 4000 SHRA SCT040TCU
22:30
V
19 °C 10 km+ - 290° 290° 6 kt METAR LFBD 192030Z AUTO 29006KT CAVOK 19/15 Q1016 TEMPO 4000 SHRA SCT040TCU
22:00
V
19 °C 10 km+ - 290° 290° 6 kt METAR LFBD 192000Z AUTO 29006KT 220V350 CAVOK 19/15 Q1016 TEMPO 4000 SHRA SCT040TCU
21:30
V
20 °C 10 km+ - 310° 310° 7 kt METAR LFBD 191930Z AUTO 31007KT CAVOK 20/14 Q1015 TEMPO 4000 SHRA SCT040TCU
21:00
V
21 °C 10 km+ - 290° 290° 8 kt METAR LFBD 191900Z AUTO 29008KT CAVOK 21/14 Q1015 TEMPO 4000 SHRA SCT040TCU
20:30
V
22 °C 10 km+ - 290° 290° 9 kt METAR LFBD 191830Z AUTO 29009KT CAVOK 22/15 Q1015 TEMPO 4000 SHRA SCT040TCU
20:00
V
23 °C 10 km+ - 280° 280° 7 kt METAR LFBD 191800Z AUTO 28007KT 9999 FEW029 23/15 Q1014 TEMPO 1500 -TSRA BKN040CB
19:30
V
23 °C 10 km+ - 290° 290° 8 kt METAR LFBD 191730Z AUTO 29008KT 9999 FEW030 23/15 Q1014 TEMPO 1500 -TSRA BKN040CB
19:00
V
23 °C 10 km+ - 290° 290° 9 kt METAR LFBD 191700Z AUTO 29009KT 9999 FEW029 23/15 Q1014 TEMPO 4000 SHRA SCT040TCU
18:30
V
23 °C 10 km+ - 290° 290° 10 kt METAR LFBD 191630Z AUTO 29010KT 260V320 9999 SCT034 SCT041 23/16 Q1014 TEMPO 4000 SHRA SCT040TCU
18:00
V
24 °C 10 km+ 3.900 ft 280° 280° 11 kt METAR LFBD 191600Z AUTO 28011KT 9999 BKN039 BKN045 24/16 Q1014 NOSIG
17:30
V
24 °C 10 km+ - 290° 290° 10 kt METAR LFBD 191530Z AUTO 29010KT 9999 SCT032 SCT039 24/16 Q1014 NOSIG
17:00
M
24 °C 10 km+ 2.900 ft 290° 290° 10 kt METAR LFBD 191500Z AUTO 29010KT 250V310 9999 BKN029 BKN035 24/16 Q1014 NOSIG
16:30
M
23 °C 10 km+ 2.900 ft 270° 270° 10 kt METAR LFBD 191430Z AUTO 27010KT 9999 BKN029 BKN036 BKN043 23/16 Q1014 NOSIG
16:00
V
24 °C 10 km+ 3.600 ft 270° 270° 10 kt METAR LFBD 191400Z AUTO 27010KT 9999 BKN036 BKN044 OVC058 24/16 Q1014 NOSIG
15:30
V
24 °C 10 km+ 3.600 ft 280° 280° 6 kt METAR LFBD 191330Z AUTO 28006KT 9999 BKN036 BKN045 BKN062 24/16 Q1014 NOSIG
15:00
V
24 °C 10 km+ 4.300 ft 270° 270° 6 kt METAR LFBD 191300Z AUTO 27006KT 230V310 9999 SCT033 BKN043 BKN054 24/16 Q1014 NOSIG
14:30
V
25 °C 10 km+ 7.600 ft 240° 240° 5 kt METAR LFBD 191230Z AUTO 24005KT 190V300 9999 FEW035 SCT044 BKN076 25/17 Q1014 NOSIG
14:00
V
23 °C 10 km+ 5.400 ft 240° 240° 7 kt METAR LFBD 191200Z AUTO 24007KT 180V320 9999 FEW032 BKN054 BKN072 23/16 Q1014 NOSIG
13:30
V
24 °C 10 km+ 5.200 ft 210° 210° 6 kt METAR LFBD 191130Z AUTO 21006KT 160V240 9999 SCT032 SCT044 BKN052 24/17 Q1014 BECMG 30010KT
13:00
V
24 °C 10 km+ 3.400 ft 220° 220° 6 kt METAR LFBD 191100Z AUTO 22006KT 170V270 9999 SCT028 BKN034 24/16 Q1014 NOSIG
12:30
V
23 °C 10 km+ 3.500 ft 260° 260° 7 kt METAR LFBD 191030Z AUTO 26007KT 190V310 9999 SCT026 BKN035 BKN078 23/16 Q1014 NOSIG
12:00
V
22 °C 10 km+ 7.800 ft 240° 240° 7 kt METAR LFBD 191000Z AUTO 24007KT 190V310 9999 SCT023 SCT028 BKN078 22/16 Q1014 NOSIG
11:30
V
22 °C 10 km+ 5.600 ft 240° 240° 8 kt METAR LFBD 190930Z AUTO 24008KT 210V270 9999 SCT020 SCT027 BKN056 22/17 Q1014 NOSIG
11:00
M
21 °C 10 km+ 2.400 ft 220° 220° 9 kt METAR LFBD 190900Z AUTO 22009KT 180V250 9999 SCT015 BKN024 BKN030 21/17 Q1014 NOSIG
10:30
M
20 °C 10 km+ 1.400 ft 230° 230° 9 kt METAR LFBD 190830Z AUTO 23009KT 9999 BKN014 BKN021 BKN027 20/17 Q1013 BECMG NSC
10:00
M
20 °C 10 km+ 1.300 ft 210° 210° 8 kt METAR LFBD 190800Z AUTO 21008KT 9999 BKN013 BKN025 20/18 Q1013 TEMPO 4000 RA BECMG NSC
09:30
M
19 °C 10 km+ 2.400 ft 220° 220° 6 kt METAR LFBD 190730Z AUTO 22006KT 180V250 9999 FEW008 BKN024 BKN029 19/17 Q1013 TEMPO 4000 RA BKN003
09:00
M
18 °C 10 km+ 3.000 ft 220° 220° 8 kt METAR LFBD 190700Z AUTO 22008KT 180V240 9999 FEW007 BKN030 BKN043 18/17 Q1013 TEMPO 4000 RA BKN003
08:30
V
18 °C 10 km+ - 230° 230° 8 kt METAR LFBD 190630Z AUTO 23008KT CAVOK 18/17 Q1013 TEMPO 4000 RA BKN003
08:00
V
17 °C 10 km+ - 240° 240° 6 kt METAR LFBD 190600Z AUTO 24006KT CAVOK 17/16 Q1012 TEMPO 4000 RA BKN003
07:30
V
17 °C 10 km+ - 160° 160° 7 kt METAR LFBD 190530Z AUTO 16007KT CAVOK 17/17 Q1012 TEMPO 4000 RA BKN003
07:00
V
17 °C 10 km+ 9.200 ft 140° 140° 7 kt METAR LFBD 190500Z AUTO 14007KT 9999 FEW013 BKN092 17/16 Q1012 TEMPO 4000 SHRA BKN030TCU FEW050CB
06:30
M
17 °C 10 km+ 1.100 ft 190° 190° 5 kt METAR LFBD 190430Z AUTO 19005KT 9999 FEW006 BKN011 BKN100 17/16 Q1012 TEMPO 4000 SHRA BKN030TCU FEW050CB
06:00
M
17 °C 10 km+ 1.000 ft 230° 230° 5 kt METAR LFBD 190400Z AUTO 23005KT 9999 SCT003 OVC010 17/16 Q1012 TEMPO 2000 BKN030TCU FEW050CB
05:30
L
17 °C 8 km 300 ft 250° 250° 6 kt METAR LFBD 190330Z AUTO 25006KT 8000 BKN003/// OVC008/// //////CB 17/17 Q1012 TEMPO 2000
05:00
L
17 °C 10 km+ 400 ft Var Var 1 kt METAR LFBD 190300Z AUTO VRB01KT 9999 BKN004/// OVC110/// //////CB 17/17 Q1011 TEMPO 2000
04:30
L
17 °C 7 km 300 ft 340° 340° 5 kt METAR LFBD 190230Z AUTO 34005KT 270V060 7000 -RA BKN003/// BKN014/// BKN078/// //////CB 17/17 Q1011 TEMPO 2000 BKN005
04:00
V
18 °C 10 km+ 11.000 ft 280° 280° 7 kt METAR LFBD 190200Z AUTO 28007KT 250V330 9999 -RA SCT003/// SCT068/// OVC110/// ///CB 18/17 Q1012 TEMPO 2000 BKN005
03:30
M
18 °C 7 km - 130° 130° 3 kt METAR LFBD 190130Z AUTO 13003KT 7000 -RA ///CB 18/17 Q1012 TEMPO 2000 BKN005
03:00
V
18 °C 10 km+ - 190° 190° 6 kt METAR LFBD 190100Z AUTO 19006KT 9999 -RA //////CB 18/17 Q1012 TEMPO 2000 BKN005
02:30
V
18 °C 10 km+ - 280° 280° 3 kt METAR LFBD 190030Z AUTO 28003KT 9999 -TSRA ///CB 18/18 Q1011 TEMPO 2000 BKN005
02:00
V
18 °C 10 km+ 10.000 ft 130° 130° 3 kt METAR LFBD 190000Z AUTO 13003KT 9999 -RA VCTS FEW014/// SCT066/// OVC100/// ///CB 18/17 Q1011 TEMPO 2000 -TSRA
01:30
V
18 °C 10 km+ - Var Var 3 kt METAR LFBD 182330Z AUTO VRB03KT 9999 RA ///CB 18/17 Q1011 TEMPO 2000 BKN005
01:00
V
18 °C 10 km+ - 130° 130° 4 kt METAR LFBD 182300Z AUTO 13004KT 9999 NSC 18/17 Q1011 TEMPO 2000 BKN070TCU
00:30
M
18 °C 7 km 9.600 ft 100° 100° 6 kt METAR LFBD 182230Z AUTO 10006KT 030V120 7000 -RA FEW030/// SCT064/// BKN096/// ///CB 18/17 Q1011 TEMPO 2000 BKN005
00:00
I
18 °C 1,9 km 700 ft 340° 340° 14 kt METAR LFBD 182200Z AUTO 34014KT 290V030 3900 1900 +TSRA BR BKN007/// BKN029/// BKN038/// //////CB 18/17 Q1012 TEMPO 2000 BKN070TCU BECMG VRB03KT

18 giugno 2024

Tempo Codice Tempo meteorologico Temp. Vista Base nuvolosa Vento METAR/SPECI
23:30
L
18 °C 550 m 4.500 ft 250° 250° 22 kt METAR LFBD 182130Z AUTO 25022KT 1000 0550 R23/1000D R05/0650D R29/0700D TSRA BCFG SCT006/// SCT012/// BKN045/// ///CB 18/17 Q1013 TEMPO 2000 BKN005 BECMG VRB03KT
23:00
V
20 °C 10 km+ - 050° 050° 9 kt METAR LFBD 182100Z AUTO 05009KT 020V080 9999 VCTS ///CB 20/18 Q1010 TEMPO VRB15G30KT 4000 SHRA BKN010 BKN025CB
22:30
V
20 °C 10 km+ - 010° 010° 6 kt METAR LFBD 182030Z AUTO 01006KT 9999 ///CB 20/18 Q1010 TEMPO VRB15G30KT 4000 SHRA BKN010 BKN025CB
22:00
V
20 °C 10 km+ - 030° 030° 8 kt METAR LFBD 182000Z AUTO 03008KT CAVOK 20/18 Q1010 TEMPO VRB15G30KT 2000 -TSRA BKN010 BKN025CB
21:30
V
21 °C 10 km+ 9.200 ft 360° 360° 8 kt METAR LFBD 181930Z AUTO 36008KT 9999 SCT034/// SCT052/// BKN092/// ///CB 21/18 Q1010 TEMPO VRB15G30KT 2000 -TSRA BKN010 BKN025CB
21:00
V
22 °C 10 km+ 3.100 ft 270° 270° 10 kt METAR LFBD 181900Z AUTO 27010KT 9999 VCTS BKN031/// OVC140/// ///CB 22/18 Q1012 TEMPO VRB15G30KT 2000 -TSRA BKN010 BKN025CB
20:30
V
22 °C 10 km+ - 020° 020° 9 kt METAR LFBD 181830Z AUTO 02009KT 9999 //////CB 22/18 Q1009 TEMPO VRB15G30KT 2000 -TSRA BKN010 BKN025CB
20:00
V
23 °C 10 km+ - 020° 020° 12 kt METAR LFBD 181800Z AUTO 02012KT CAVOK 23/18 Q1009 TEMPO VRB15G30KT 2000 -TSRA BKN010 BKN025CB
19:30
V
24 °C 10 km+ - 020° 020° 13 kt METAR LFBD 181730Z AUTO 02013KT CAVOK 24/18 Q1010 TEMPO VRB20G45KT 2000 TSRAGR BKN006 BKN040CB
19:00
V
26 °C 10 km+ - 030° 030° 7 kt METAR LFBD 181700Z AUTO 03007KT 360V090 CAVOK 26/18 Q1010 TEMPO VRB20G45KT 2000 TSRAGR BKN006 BKN040CB
18:30
V
27 °C 10 km+ - 070° 070° 8 kt METAR LFBD 181630Z AUTO 07008KT 040V100 CAVOK 27/17 Q1009 TEMPO VRB20G45KT 2000 TSRAGR BKN006 BKN040CB
18:00
V
27 °C 10 km+ - 090° 090° 4 kt METAR LFBD 181600Z AUTO 09004KT 040V170 CAVOK 27/17 Q1010 TEMPO VRB20G45KT 2000 TSRAGR BKN006 BKN040CB
17:30
V
27 °C 10 km+ - Var Var 2 kt METAR LFBD 181530Z AUTO VRB02KT CAVOK 27/18 Q1011 TEMPO VRB20G45KT 2000 TSRAGR BKN006 BKN040CB
17:00
V
27 °C 10 km+ - 130° 130° 6 kt METAR LFBD 181500Z AUTO 13006KT 9999 FEW036 SCT170 27/18 Q1011 TEMPO VRB20G45KT 2000 TSRAGR BKN006 BKN040CB
16:30
V
27 °C 10 km+ 19.000 ft 120° 120° 5 kt METAR LFBD 181430Z AUTO 12005KT 070V170 9999 FEW035 BKN190 BKN210 27/19 Q1011 TEMPO VRB20G45KT 2000 TSRAGR BKN006 BKN040CB
16:00
V
26 °C 10 km+ - 130° 130° 7 kt METAR LFBD 181400Z AUTO 13007KT CAVOK 26/18 Q1011 TEMPO VRB20G45KT 2000 TSRAGR BKN006 BKN040CB
15:30
V
27 °C 10 km+ - 120° 120° 8 kt METAR LFBD 181330Z AUTO 12008KT 070V160 9999 FEW038 27/18 Q1011 TEMPO VRB20G45KT 2000 TSRAGR BKN006 BKN040CB
15:00
V
28 °C 10 km+ - 110° 110° 9 kt METAR LFBD 181300Z AUTO 11009KT 080V150 9999 FEW036 SCT044 28/18 Q1011 TEMPO VRB20G45KT 2000 TSRAGR BKN006 BKN040CB
14:30
V
27 °C 10 km+ - 150° 150° 7 kt METAR LFBD 181230Z AUTO 15007KT 090V190 9999 SCT038 SCT045 27/18 Q1011 TEMPO VRB20G45KT 2000 TSRAGR BKN006 BKN040CB
14:00
V
28 °C 10 km+ 3.800 ft 140° 140° 8 kt METAR LFBD 181200Z AUTO 14008KT 080V190 9999 FEW032 BKN038 BKN044 28/18 Q1011 TEMPO SHRA BKN040TCU
13:30
V
27 °C 10 km+ 3.700 ft 130° 130° 7 kt METAR LFBD 181130Z AUTO 13007KT 070V220 9999 SCT029 BKN037 BKN043 27/19 Q1011 TEMPO SHRA BKN040TCU
13:00
V
26 °C 10 km+ 22.000 ft 180° 180° 7 kt METAR LFBD 181100Z AUTO 18007KT 9999 FEW030 BKN220 26/18 Q1011 TEMPO SHRA BKN040TCU
12:30
V
25 °C 10 km+ 3.400 ft 140° 140° 6 kt METAR LFBD 181030Z AUTO 14006KT 110V180 9999 SCT025 BKN034 BKN120 25/18 Q1011 TEMPO SHRA BKN040TCU
12:00
M
25 °C 10 km+ 2.400 ft 140° 140° 7 kt METAR LFBD 181000Z AUTO 14007KT 100V160 9999 BKN024 BKN031 BKN120 25/19 Q1011 NOSIG
11:30
M
25 °C 10 km+ 2.300 ft 150° 150° 9 kt METAR LFBD 180930Z AUTO 15009KT 9999 BKN023 BKN120 BKN150 25/19 Q1011 NOSIG
11:00
M
25 °C 10 km+ 2.200 ft 130° 130° 8 kt METAR LFBD 180900Z AUTO 13008KT 090V170 9999 BKN022 BKN130 25/19 Q1011 NOSIG
10:30
V
24 °C 10 km+ 14.000 ft 130° 130° 5 kt METAR LFBD 180830Z AUTO 13005KT 080V170 9999 SCT020 BKN140 BKN190 24/19 Q1011 NOSIG
10:00
V
24 °C 10 km+ - 120° 120° 5 kt METAR LFBD 180800Z AUTO 12005KT 080V170 CAVOK 24/18 Q1011 NOSIG
09:30
M
22 °C 10 km+ 2.400 ft 360° 360° 0 kt METAR LFBD 180730Z AUTO /////KT 9999 BKN024 22/18 Q1011
09:00
M
21 °C 10 km+ 2.300 ft 360° 360° 0 kt METAR LFBD 180700Z AUTO /////KT 9999 SCT017 OVC023 21/18 Q1011
08:30
M
22 °C 10 km+ 1.900 ft 360° 360° 0 kt METAR LFBD 180630Z AUTO /////KT 9999 BKN019 BKN024 22/18 Q1010
08:00
V
21 °C 10 km+ - 360° 360° 0 kt METAR LFBD 180600Z AUTO /////KT 9999 SCT022 SCT035 21/18 Q1010
Segnala modifiche